Time;durP1;ratioP1;P1;durP2;ratioP2;P2;SDS_P1;SDS_P2;PMS_P1;PMS_P2;Temp;Humidity;BMP_temperature;BMP_pressure;BME280_temperature;BME280_humidity;BME280_pressure;Samples;Min_cycle;Max_cycle;Signal;HPM_P1;HPM_P2
2021/05/10 00:00:55;;;;;;;9.65;7.60;;;17.00;88.50;;;;;;4975601;28;20049;-74
2021/05/10 00:03:21;;;;;;;9.23;8.20;;;16.90;89.30;;;;;;5011691;28;20055;-74
2021/05/10 00:05:50;;;;;;;8.68;7.43;;;16.70;90.00;;;;;;4986990;28;20046;-74
2021/05/10 00:08:16;;;;;;;8.43;7.63;;;16.70;90.10;;;;;;4995969;28;20092;-74
2021/05/10 00:10:45;;;;;;;8.75;7.10;;;16.70;90.60;;;;;;5006097;28;20038;-74
2021/05/10 00:13:14;;;;;;;8.18;6.60;;;16.60;90.30;;;;;;5011999;28;20041;-74
2021/05/10 00:15:40;;;;;;;8.82;7.15;;;16.60;90.30;;;;;;5004707;28;20038;-74
2021/05/10 00:18:06;;;;;;;10.70;8.05;;;16.50;90.40;;;;;;4982756;28;20058;-73
2021/05/10 00:20:34;;;;;;;9.25;7.32;;;16.50;90.60;;;;;;5000233;28;20433;-74
2021/05/10 00:23:00;;;;;;;8.82;8.00;;;16.40;90.80;;;;;;5011784;28;21380;-74
2021/05/10 00:25:27;;;;;;;9.52;8.48;;;16.30;90.90;;;;;;5017789;28;20133;-74
2021/05/10 00:27:53;;;;;;;12.27;9.68;;;16.30;91.10;;;;;;5027226;28;20061;-74
2021/05/10 00:30:21;;;;;;;10.48;9.40;;;16.30;91.10;;;;;;4991719;28;20147;-74
2021/05/10 00:32:47;;;;;;;11.30;7.82;;;16.20;91.10;;;;;;5016188;28;20120;-75
2021/05/10 00:35:14;;;;;;;9.80;8.05;;;16.20;91.20;;;;;;5000416;28;20077;-73
2021/05/10 00:37:40;;;;;;;9.77;8.48;;;16.20;91.30;;;;;;5015174;28;20049;-74
2021/05/10 00:40:08;;;;;;;11.38;8.45;;;16.20;91.30;;;;;;5027996;28;20051;-74
2021/05/10 00:42:33;;;;;;;12.35;8.50;;;16.10;91.30;;;;;;5026417;28;20044;-74
2021/05/10 00:44:59;;;;;;;10.52;8.98;;;16.10;91.40;;;;;;5014473;28;20038;-74
2021/05/10 00:47:25;;;;;;;9.82;8.82;;;16.10;91.30;;;;;;5020099;28;20100;-74
2021/05/10 00:49:51;;;;;;;11.52;9.10;;;16.20;91.40;;;;;;4998643;28;20033;-74
2021/05/10 00:52:18;;;;;;;10.10;9.10;;;16.20;91.50;;;;;;5024700;28;20041;-74
2021/05/10 00:54:44;;;;;;;12.50;10.32;;;16.20;91.50;;;;;;5010941;28;20042;-74
2021/05/10 00:57:10;;;;;;;10.10;9.10;;;16.20;91.50;;;;;;5017285;28;20047;-74
2021/05/10 00:59:37;;;;;;;10.52;8.88;;;16.20;91.40;;;;;;5015581;28;20037;-74
2021/05/10 01:02:03;;;;;;;9.30;8.43;;;16.20;91.40;;;;;;5010346;28;20745;-74
2021/05/10 01:04:30;;;;;;;11.35;9.32;;;16.30;91.40;;;;;;4993864;28;20418;-74
2021/05/10 01:06:58;;;;;;;14.05;10.35;;;16.30;91.60;;;;;;5012021;28;20045;-74
2021/05/10 01:09:24;;;;;;;12.23;9.85;;;16.30;91.20;;;;;;5022167;28;20079;-74
2021/05/10 01:11:51;;;;;;;11.07;9.13;;;16.30;91.20;;;;;;4997494;28;20049;-74
2021/05/10 01:14:17;;;;;;;12.13;9.98;;;16.30;91.30;;;;;;4997817;28;20040;-74
2021/05/10 01:16:43;;;;;;;10.93;9.68;;;16.30;91.50;;;;;;5024885;28;20041;-74
2021/05/10 01:19:09;;;;;;;10.93;9.82;;;16.30;91.40;;;;;;5010675;28;20599;-74
2021/05/10 01:21:35;;;;;;;10.15;9.15;;;16.30;91.40;;;;;;5025603;28;20048;-74
2021/05/10 01:24:05;;;;;;;10.73;9.63;;;16.30;91.40;;;;;;5011060;28;20037;-74
2021/05/10 01:26:31;;;;;;;11.13;10.02;;;16.30;91.40;;;;;;5000972;28;20571;-73
2021/05/10 01:28:57;;;;;;;11.68;10.27;;;16.30;91.40;;;;;;5000876;28;20104;-73
2021/05/10 01:31:22;;;;;;;12.43;10.35;;;16.20;91.50;;;;;;5004475;28;20042;-74
2021/05/10 01:33:48;;;;;;;11.35;10.25;;;16.20;91.50;;;;;;4991619;28;20069;-74
2021/05/10 01:36:14;;;;;;;11.65;10.52;;;16.10;91.60;;;;;;4990448;28;20088;-74
2021/05/10 01:38:40;;;;;;;11.75;9.57;;;16.10;91.60;;;;;;4979134;28;20046;-74
2021/05/10 01:41:06;;;;;;;12.35;10.23;;;16.10;91.60;;;;;;5004172;28;20081;-73
2021/05/10 01:43:32;;;;;;;11.05;9.63;;;16.10;91.60;;;;;;5002884;28;20404;-74
2021/05/10 01:45:58;;;;;;;10.35;9.27;;;16.10;91.60;;;;;;4973059;28;20053;-73
2021/05/10 01:48:24;;;;;;;12.10;9.80;;;16.00;91.70;;;;;;4988124;28;20521;-73
2021/05/10 01:50:49;;;;;;;11.15;9.95;;;16.00;91.80;;;;;;4988730;28;20348;-73
2021/05/10 01:53:16;;;;;;;12.80;10.60;;;15.90;91.80;;;;;;4971520;28;20508;-73
2021/05/10 01:55:43;;;;;;;11.35;10.02;;;16.00;92.00;;;;;;4992027;28;20112;-74
2021/05/10 01:58:09;;;;;;;13.57;11.50;;;15.90;92.00;;;;;;4988692;28;20041;-73
2021/05/10 02:00:43;;;;;;;13.50;11.05;;;15.90;92.00;;;;;;4985744;28;20100;-73
2021/05/10 02:03:13;;;;;;;11.77;10.57;;;15.90;92.20;;;;;;5005545;28;20042;-73
2021/05/10 02:05:40;;;;;;;11.55;10.45;;;15.80;92.20;;;;;;5000671;28;20113;-73
2021/05/10 02:08:09;;;;;;;12.05;10.85;;;15.80;92.20;;;;;;5003828;28;20064;-73
2021/05/10 02:10:46;;;;;;;12.25;11.05;;;15.80;92.30;;;;;;5009122;28;20088;-73
2021/05/10 02:13:20;;;;;;;12.60;11.10;;;15.80;92.30;;;;;;4987592;28;20396;-73
2021/05/10 02:15:48;;;;;;;12.35;11.15;;;15.80;92.40;;;;;;5008203;28;20125;-73
2021/05/10 02:18:18;;;;;;;13.55;11.05;;;15.70;92.40;;;;;;5010794;28;20068;-73
2021/05/10 02:20:44;;;;;;;12.50;11.30;;;15.70;92.60;;;;;;4995176;28;20069;-73
2021/05/10 02:23:25;;;;;;;12.82;11.55;;;15.60;92.70;;;;;;4983191;28;20045;-73
2021/05/10 02:25:53;;;;;;;12.02;9.80;;;15.60;92.80;;;;;;5006606;28;20058;-73
2021/05/10 02:28:23;;;;;;;12.55;11.25;;;15.60;92.70;;;;;;4987241;28;20381;-73
2021/05/10 02:30:50;;;;;;;13.68;12.32;;;15.60;92.70;;;;;;5005217;28;20046;-73
2021/05/10 02:33:18;;;;;;;13.98;12.52;;;15.60;92.80;;;;;;4999162;28;20524;-73
2021/05/10 02:35:55;;;;;;;12.75;11.45;;;15.70;92.80;;;;;;4986226;28;20038;-73
2021/05/10 02:38:22;;;;;;;14.10;12.02;;;15.60;92.80;;;;;;4970361;28;20400;-73
2021/05/10 02:40:48;;;;;;;15.38;11.98;;;15.70;92.70;;;;;;4978055;28;20046;-73
2021/05/10 02:43:31;;;;;;;14.25;12.10;;;15.70;92.70;;;;;;5003936;28;20038;-73
2021/05/10 02:46:00;;;;;;;13.35;11.93;;;15.70;92.60;;;;;;4963525;28;20037;-73
2021/05/10 02:48:26;;;;;;;13.30;10.80;;;15.80;92.60;;;;;;4993587;28;20044;-74
2021/05/10 02:50:54;;;;;;;13.90;12.40;;;15.80;92.60;;;;;;4983099;28;20464;-73
2021/05/10 02:53:21;;;;;;;13.40;12.00;;;15.70;92.90;;;;;;4984267;28;20081;-73
2021/05/10 02:55:47;;;;;;;14.10;11.98;;;15.70;92.60;;;;;;5013073;28;20072;-73
2021/05/10 02:58:12;;;;;;;12.77;11.48;;;15.70;92.60;;;;;;5023946;28;20046;-74
2021/05/10 03:00:38;;;;;;;13.60;11.90;;;15.70;92.60;;;;;;4990435;28;20030;-74
2021/05/10 03:03:04;;;;;;;13.98;12.38;;;15.70;92.80;;;;;;4995963;28;20049;-73
2021/05/10 03:05:30;;;;;;;13.57;12.23;;;15.70;92.80;;;;;;4986277;28;20510;-74
2021/05/10 03:07:57;;;;;;;15.10;13.43;;;15.60;92.90;;;;;;5010533;28;20065;-73
2021/05/10 03:10:25;;;;;;;13.35;12.02;;;15.70;93.00;;;;;;5024038;28;20072;-75
2021/05/10 03:12:52;;;;;;;16.75;13.30;;;15.70;92.90;;;;;;5016686;28;20061;-73
2021/05/10 03:15:21;;;;;;;14.82;13.23;;;15.80;92.90;;;;;;5007832;28;20038;-74
2021/05/10 03:17:51;;;;;;;15.32;13.80;;;15.80;92.90;;;;;;5014317;28;20048;-73
2021/05/10 03:20:20;;;;;;;17.40;13.55;;;15.80;92.90;;;;;;5009467;28;20038;-75
2021/05/10 03:22:47;;;;;;;16.55;13.27;;;15.80;92.90;;;;;;4983356;28;20045;-73
2021/05/10 03:25:13;;;;;;;14.18;12.77;;;15.80;92.80;;;;;;4994534;28;20065;-74
2021/05/10 03:27:40;;;;;;;15.55;12.60;;;15.90;92.80;;;;;;5018292;28;20534;-74
2021/05/10 03:30:18;;;;;;;15.55;13.00;;;16.00;92.60;;;;;;4997743;28;20081;-73
2021/05/10 03:32:46;;;;;;;13.50;12.13;;;16.10;92.50;;;;;;4991634;28;20069;-73
2021/05/10 03:35:13;;;;;;;12.75;11.52;;;16.10;92.50;;;;;;5009513;28;20121;-74
2021/05/10 03:37:40;;;;;;;12.65;11.40;;;16.10;92.40;;;;;;4992317;28;20042;-73
2021/05/10 03:40:11;;;;;;;14.27;11.10;;;16.20;92.20;;;;;;5008153;28;20060;-73
2021/05/10 03:42:38;;;;;;;16.65;12.15;;;16.30;92.10;;;;;;5008008;28;20100;-74
2021/05/10 03:45:06;;;;;;;12.80;11.52;;;16.30;92.10;;;;;;4987778;28;20045;-74
2021/05/10 03:47:39;;;;;;;11.93;10.73;;;16.30;92.10;;;;;;4990413;28;20294;-74
2021/05/10 03:50:12;;;;;;;12.98;11.60;;;16.40;92.10;;;;;;5009026;28;20124;-74
2021/05/10 03:52:39;;;;;;;12.48;11.18;;;16.40;92.10;;;;;;4996536;28;20466;-73
2021/05/10 03:55:10;;;;;;;12.43;11.23;;;16.40;92.10;;;;;;5000948;28;20046;-74
2021/05/10 03:57:37;;;;;;;12.30;10.73;;;16.40;92.10;;;;;;5010916;28;20037;-74
2021/05/10 04:00:06;;;;;;;14.40;10.82;;;16.40;92.10;;;;;;5012650;28;20109;-73
2021/05/10 04:02:32;;;;;;;12.07;10.63;;;16.30;92.10;;;;;;4988831;28;20053;-73
2021/05/10 04:07:59;;;;;;;13.33;10.57;;;16.30;92.10;;;;;;5003095;28;20038;-73
2021/05/10 04:15:35;;;;;;;14.10;9.35;;;16.30;91.90;;;;;;5013151;28;20049;-74
2021/05/10 04:18:01;;;;;;;11.52;9.77;;;16.30;92.20;;;;;;4988456;28;20512;-73
2021/05/10 04:20:30;;;;;;;11.98;9.05;;;16.40;91.80;;;;;;5014148;28;20113;-73
2021/05/10 04:22:56;;;;;;;10.73;8.90;;;16.30;91.70;;;;;;5014022;28;20068;-73
2021/05/10 04:25:22;;;;;;;11.02;9.60;;;16.30;91.60;;;;;;4993678;28;20073;-73
2021/05/10 04:27:48;;;;;;;10.30;9.07;;;16.40;91.50;;;;;;5011858;28;20454;-74
2021/05/10 04:30:15;;;;;;;9.80;8.52;;;16.40;91.30;;;;;;5012522;28;20046;-73
2021/05/10 04:32:41;;;;;;;8.82;7.63;;;16.40;91.10;;;;;;5010349;28;20041;-73
2021/05/10 04:35:08;;;;;;;10.50;7.13;;;16.40;91.00;;;;;;4999578;28;20440;-73
2021/05/10 04:37:35;;;;;;;8.75;6.80;;;16.50;90.80;;;;;;4989592;28;20084;-73
2021/05/10 04:40:01;;;;;;;6.82;5.80;;;16.50;90.60;;;;;;4998618;28;20722;-73
2021/05/10 04:42:29;;;;;;;8.07;6.43;;;16.60;90.30;;;;;;4999249;28;20065;-73
2021/05/10 04:44:55;;;;;;;6.82;6.05;;;16.60;90.20;;;;;;4971659;28;20076;-72
2021/05/10 04:47:24;;;;;;;6.55;4.43;;;16.60;90.00;;;;;;4997693;28;20065;-73
2021/05/10 04:49:50;;;;;;;5.78;4.57;;;16.70;89.00;;;;;;5002746;28;20094;-73
2021/05/10 04:52:16;;;;;;;9.10;4.07;;;16.80;87.90;;;;;;5007474;28;20045;-72
2021/05/10 04:54:42;;;;;;;6.00;4.55;;;16.90;87.20;;;;;;4991597;28;20374;-72
2021/05/10 04:57:09;;;;;;;5.63;3.65;;;17.00;86.60;;;;;;4975093;28;20144;-73
2021/05/10 04:59:35;;;;;;;5.03;3.97;;;17.00;85.80;;;;;;4972900;28;20760;-73
2021/05/10 05:02:01;;;;;;;7.68;4.25;;;17.10;85.70;;;;;;4988233;28;20151;-73
2021/05/10 05:04:27;;;;;;;13.75;3.53;;;17.10;85.50;;;;;;4970939;28;20408;-73
2021/05/10 05:06:58;;;;;;;4.22;3.53;;;17.10;85.20;;;;;;5017839;28;20053;-73
2021/05/10 05:09:24;;;;;;;5.55;3.28;;;17.20;84.80;;;;;;4968514;28;20060;-73
2021/05/10 05:11:50;;;;;;;5.93;2.92;;;17.30;84.00;;;;;;4966668;28;22959;-73
2021/05/10 05:14:16;;;;;;;5.93;2.67;;;17.40;83.60;;;;;;4984130;28;20343;-73
2021/05/10 05:16:42;;;;;;;4.90;2.90;;;17.60;82.90;;;;;;4984688;28;20042;-73
2021/05/10 05:19:07;;;;;;;6.03;2.63;;;17.80;80.40;;;;;;4982979;28;20439;-73
2021/05/10 05:21:34;;;;;;;4.45;2.13;;;17.90;79.10;;;;;;5004061;28;20468;-73
2021/05/10 05:24:00;;;;;;;5.53;2.47;;;18.10;78.30;;;;;;4974507;28;20374;-74
2021/05/10 05:26:26;;;;;;;3.78;2.40;;;18.30;77.60;;;;;;5008175;28;20057;-73
2021/05/10 05:28:52;;;;;;;4.53;2.50;;;18.30;77.80;;;;;;5001736;28;20083;-74
2021/05/10 05:31:18;;;;;;;4.88;2.53;;;18.30;77.30;;;;;;5014667;28;20037;-73
2021/05/10 05:33:43;;;;;;;5.25;2.47;;;18.30;77.00;;;;;;4991358;28;20435;-73
2021/05/10 05:36:10;;;;;;;4.50;2.33;;;18.40;77.10;;;;;;4993943;28;20095;-73
2021/05/10 05:38:37;;;;;;;5.38;2.17;;;18.40;76.30;;;;;;5013065;28;20049;-73
2021/05/10 05:41:05;;;;;;;4.20;2.22;;;18.50;76.70;;;;;;4997052;28;20049;-73
2021/05/10 05:43:31;;;;;;;4.53;2.45;;;18.50;76.50;;;;;;4991505;28;20049;-72
2021/05/10 05:45:57;;;;;;;6.55;2.80;;;18.60;76.40;;;;;;5012829;28;20038;-73
2021/05/10 05:48:23;;;;;;;6.13;1.75;;;18.70;75.50;;;;;;5007705;28;20042;-74
2021/05/10 05:50:49;;;;;;;4.95;2.13;;;18.80;75.20;;;;;;5010097;28;20045;-74
2021/05/10 05:53:15;;;;;;;6.15;2.17;;;19.00;74.50;;;;;;5015788;28;20091;-74
2021/05/10 05:55:41;;;;;;;4.60;2.25;;;19.00;73.80;;;;;;5021225;28;20052;-73
2021/05/10 05:58:07;;;;;;;5.65;2.15;;;19.10;72.70;;;;;;4998832;28;20368;-74
2021/05/10 06:00:33;;;;;;;3.10;1.77;;;19.10;72.50;;;;;;4978544;28;20511;-74
2021/05/10 06:03:01;;;;;;;4.43;1.63;;;19.10;73.00;;;;;;5021444;28;20504;-75
2021/05/10 06:05:30;;;;;;;7.82;1.90;;;19.20;72.10;;;;;;5015882;28;20040;-74
2021/05/10 06:07:55;;;;;;;3.83;1.50;;;19.20;72.20;;;;;;5011339;28;20473;-75
2021/05/10 06:10:26;;;;;;;4.43;2.00;;;19.30;72.40;;;;;;5011102;28;20088;-74
2021/05/10 06:12:53;;;;;;;4.15;2.08;;;19.30;71.60;;;;;;5012093;28;20132;-74
2021/05/10 06:15:21;;;;;;;5.32;1.67;;;19.40;70.50;;;;;;5014403;28;20033;-74
2021/05/10 06:17:47;;;;;;;8.60;2.00;;;19.50;70.50;;;;;;5019827;28;20451;-75
2021/05/10 06:20:14;;;;;;;5.38;1.83;;;19.50;69.30;;;;;;5018811;28;20180;-74
2021/05/10 06:22:41;;;;;;;7.97;2.10;;;19.60;67.90;;;;;;5014216;28;20111;-75
2021/05/10 06:25:09;;;;;;;4.43;1.40;;;19.60;66.60;;;;;;5022451;28;20053;-75
2021/05/10 06:27:35;;;;;;;5.85;1.48;;;19.60;67.20;;;;;;5008894;28;20038;-74
2021/05/10 06:30:04;;;;;;;4.60;1.67;;;19.60;67.00;;;;;;5006391;28;20929;-74
2021/05/10 06:32:29;;;;;;;5.80;1.60;;;19.60;67.00;;;;;;4987315;28;20555;-74
2021/05/10 06:34:55;;;;;;;6.30;1.60;;;19.60;66.30;;;;;;4990495;28;20049;-73
2021/05/10 06:37:21;;;;;;;4.47;1.60;;;19.60;66.00;;;;;;4988500;28;20041;-75
2021/05/10 06:39:48;;;;;;;4.28;1.75;;;19.70;65.90;;;;;;5005402;28;21278;-73
2021/05/10 06:42:14;;;;;;;5.28;1.55;;;19.60;66.60;;;;;;4973576;28;20050;-75
2021/05/10 06:44:40;;;;;;;3.80;1.67;;;19.70;65.00;;;;;;5004677;28;20061;-75
2021/05/10 06:47:07;;;;;;;4.57;1.70;;;19.70;65.20;;;;;;5005812;28;21466;-73
2021/05/10 06:49:33;;;;;;;4.75;1.80;;;19.60;66.10;;;;;;4987128;28;20331;-75
2021/05/10 06:52:01;;;;;;;4.07;1.63;;;19.60;66.20;;;;;;4988492;28;20408;-73
2021/05/10 06:54:26;;;;;;;4.07;1.63;;;19.70;65.20;;;;;;5008412;28;20056;-73
2021/05/10 06:56:52;;;;;;;4.93;1.60;;;19.80;64.90;;;;;;5006003;28;20041;-73
2021/05/10 06:59:19;;;;;;;4.47;1.63;;;19.80;63.90;;;;;;4971419;28;20038;-74
2021/05/10 07:01:45;;;;;;;3.85;1.55;;;20.00;63.80;;;;;;4988603;28;20038;-73
2021/05/10 07:04:11;;;;;;;3.97;1.48;;;20.10;63.40;;;;;;5008144;28;20049;-75
2021/05/10 07:06:37;;;;;;;3.45;1.55;;;20.10;64.00;;;;;;4990702;28;20400;-75
2021/05/10 07:09:04;;;;;;;7.25;1.80;;;20.20;64.00;;;;;;4994529;28;20042;-76
2021/05/10 07:11:31;;;;;;;4.82;1.50;;;20.30;63.50;;;;;;5004695;28;20038;-75
2021/05/10 07:14:00;;;;;;;9.00;1.40;;;20.40;62.80;;;;;;5013241;28;20040;-73
2021/05/10 07:16:26;;;;;;;5.00;1.48;;;20.60;63.30;;;;;;5003286;28;20439;-73
2021/05/10 07:18:54;;;;;;;3.15;1.40;;;20.70;64.00;;;;;;4989658;28;20388;-74
2021/05/10 07:21:21;;;;;;;5.10;1.40;;;20.70;63.50;;;;;;5006659;28;20034;-73
2021/05/10 07:23:47;;;;;;;5.53;1.40;;;20.70;64.30;;;;;;4990726;28;20121;-75
2021/05/10 07:26:13;;;;;;;4.40;1.30;;;20.60;63.60;;;;;;4988403;28;20156;-74
2021/05/10 07:28:39;;;;;;;9.10;1.50;;;20.50;65.40;;;;;;5027564;28;20037;-74
2021/05/10 07:31:05;;;;;;;4.35;1.45;;;20.40;64.90;;;;;;5027358;28;20547;-73
2021/05/10 07:33:30;;;;;;;7.43;1.60;;;20.40;68.10;;;;;;5026032;28;20057;-73
2021/05/10 07:35:56;;;;;;;4.85;1.20;;;20.20;67.80;;;;;;4996001;28;20037;-73
2021/05/10 07:38:22;;;;;;;3.08;1.25;;;19.90;68.60;;;;;;5013412;28;20048;-74
2021/05/10 07:40:52;;;;;;;6.95;1.58;;;19.80;70.30;;;;;;5027500;28;20072;-73
2021/05/10 07:43:17;;;;;;;3.88;0.77;;;19.70;71.00;;;;;;5017178;28;20033;-74
2021/05/10 07:45:43;;;;;;;3.80;0.70;;;19.50;68.50;;;;;;4992673;28;21441;-73
2021/05/10 07:48:14;;;;;;;3.03;0.63;;;19.40;67.10;;;;;;5000322;28;20069;-74
2021/05/10 07:50:40;;;;;;;1.65;0.52;;;19.20;68.50;;;;;;5010500;28;20528;-75
2021/05/10 07:53:06;;;;;;;2.40;0.50;;;19.20;69.00;;;;;;5010362;28;20049;-73
2021/05/10 07:55:37;;;;;;;1.15;0.50;;;19.10;67.40;;;;;;5014325;28;20073;-73
2021/05/10 07:58:03;;;;;;;1.80;0.43;;;19.00;68.20;;;;;;5024730;28;20049;-73
2021/05/10 08:00:33;;;;;;;2.22;0.40;;;18.80;69.90;;;;;;4998316;28;20057;-74
2021/05/10 08:03:06;;;;;;;3.00;0.50;;;18.80;69.10;;;;;;5010736;28;20045;-73
2021/05/10 08:05:37;;;;;;;2.80;0.55;;;18.70;69.30;;;;;;5027168;28;20690;-73
2021/05/10 08:08:04;;;;;;;0.60;0.30;;;18.50;69.80;;;;;;5007570;28;20540;-74
2021/05/10 08:10:30;;;;;;;1.58;0.40;;;18.50;70.40;;;;;;5010919;28;20169;-74
2021/05/10 08:12:56;;;;;;;0.50;0.40;;;18.50;70.80;;;;;;5004356;28;20496;-75
2021/05/10 08:15:22;;;;;;;1.67;0.40;;;18.50;71.40;;;;;;5010072;28;20068;-74
2021/05/10 08:17:48;;;;;;;2.17;0.80;;;18.60;72.50;;;;;;5024820;28;20037;-75
2021/05/10 08:20:15;;;;;;;1.02;0.50;;;18.60;72.60;;;;;;5023269;28;20559;-73
2021/05/10 08:22:43;;;;;;;0.60;0.40;;;18.80;72.30;;;;;;5015853;28;20038;-76
2021/05/10 08:25:11;;;;;;;1.00;0.60;;;18.80;71.80;;;;;;4997758;28;20519;-75
2021/05/10 08:27:36;;;;;;;2.05;0.60;;;19.00;73.10;;;;;;5039394;28;20079;-75
2021/05/10 08:30:08;;;;;;;1.05;0.50;;;19.10;71.30;;;;;;5003589;28;20034;-76
2021/05/10 08:32:35;;;;;;;1.05;0.80;;;19.10;71.90;;;;;;5044039;28;20036;-75
2021/05/10 08:35:01;;;;;;;1.88;0.60;;;19.00;71.40;;;;;;5026949;28;20116;-75
2021/05/10 08:37:29;;;;;;;0.90;0.60;;;18.90;70.90;;;;;;4992726;28;20041;-74
2021/05/10 08:39:55;;;;;;;0.50;0.50;;;18.80;72.40;;;;;;5013462;28;20174;-75
2021/05/10 08:42:21;;;;;;;1.15;0.80;;;18.90;74.10;;;;;;5009071;28;20041;-75
2021/05/10 08:44:47;;;;;;;1.90;0.80;;;18.80;74.10;;;;;;5027097;28;20037;-75
2021/05/10 08:47:13;;;;;;;1.23;0.68;;;18.80;73.30;;;;;;5009375;28;20045;-75
2021/05/10 08:49:39;;;;;;;1.27;0.70;;;18.80;73.30;;;;;;5017314;28;20041;-76
2021/05/10 08:52:05;;;;;;;3.55;0.90;;;18.80;74.40;;;;;;5016052;28;20610;-75
2021/05/10 08:54:32;;;;;;;1.77;1.10;;;18.90;75.10;;;;;;5031612;28;20037;-75
2021/05/10 08:57:01;;;;;;;2.17;0.80;;;19.00;75.40;;;;;;5030799;28;20503;-74
2021/05/10 08:59:27;;;;;;;1.85;1.00;;;19.10;74.40;;;;;;5031140;28;20041;-76
2021/05/10 09:01:59;;;;;;;1.15;0.90;;;19.00;74.10;;;;;;4990955;28;20065;-75
2021/05/10 09:04:39;;;;;;;2.05;0.93;;;18.90;75.10;;;;;;5024136;28;20067;-75
2021/05/10 09:07:20;;;;;;;2.55;0.77;;;18.70;75.40;;;;;;5017088;28;20155;-76
2021/05/10 09:10:00;;;;;;;3.40;1.10;;;18.50;77.00;;;;;;5006612;28;20047;-75
2021/05/10 09:12:41;;;;;;;;;;;18.50;77.60;;;;;;5033056;28;20355;-76
2021/05/10 09:15:16;;;;;;;1.77;1.15;;;18.60;78.60;;;;;;5030284;28;19921;-75
2021/05/10 09:17:50;;;;;;;2.80;1.23;;;19.00;77.00;;;;;;5007924;28;20415;-75
2021/05/10 09:20:22;;;;;;;2.75;1.20;;;19.10;75.30;;;;;;5024808;28;20037;-74
2021/05/10 09:22:52;;;;;;;4.63;1.30;;;19.10;74.80;;;;;;5026133;28;20501;-75
2021/05/10 09:25:18;;;;;;;2.15;1.20;;;19.00;74.40;;;;;;5020539;28;20254;-75
2021/05/10 09:27:46;;;;;;;2.70;1.20;;;19.10;73.70;;;;;;5043685;28;20041;-74
2021/05/10 09:30:16;;;;;;;2.80;1.25;;;19.30;73.50;;;;;;5030213;28;20063;-75
2021/05/10 09:32:52;;;;;;;;;;;19.40;72.70;;;;;;5039170;28;20700;-75
2021/05/10 09:35:44;;;;;;;3.58;1.55;;;19.40;69.80;;;;;;5041592;28;19924;-76
2021/05/10 09:38:10;;;;;;;3.60;1.52;;;19.20;71.60;;;;;;5006958;28;20129;-75
2021/05/10 09:40:43;;;;;;;2.70;1.30;;;19.10;72.30;;;;;;5032017;28;20523;-75
2021/05/10 09:43:10;;;;;;;2.53;1.38;;;19.00;72.20;;;;;;5027420;28;20416;-75
2021/05/10 09:45:46;;;;;;;3.35;1.65;;;18.90;73.40;;;;;;5010471;28;20046;-76
2021/05/10 09:48:36;;;;;;;3.53;1.23;;;18.80;73.00;;;;;;5022353;28;20496;-75
2021/05/10 09:51:10;;;;;;;3.95;1.33;;;18.70;73.00;;;;;;5024691;28;20030;-75
2021/05/10 09:53:39;;;;;;;3.10;1.40;;;18.50;73.80;;;;;;5013011;28;20492;-74
2021/05/10 09:58:51;;;;;;;4.13;1.60;;;18.30;76.60;;;;;;5020863;28;20534;-74
2021/05/10 10:01:17;;;;;;;3.00;1.52;;;18.20;77.80;;;;;;5026024;28;20041;-75
2021/05/10 10:03:49;;;;;;;2.08;1.30;;;18.00;78.80;;;;;;5034733;28;20116;-73
2021/05/10 10:06:19;;;;;;;2.88;1.42;;;17.70;79.10;;;;;;5003129;28;20045;-74
2021/05/10 10:08:47;;;;;;;2.70;1.20;;;17.20;76.10;;;;;;5013147;28;20527;-74
2021/05/10 10:11:18;;;;;;;1.77;1.02;;;16.70;78.20;;;;;;5037728;28;20041;-75
2021/05/10 10:13:46;;;;;;;3.33;1.08;;;16.20;80.50;;;;;;5007928;28;20033;-75
2021/05/10 10:16:13;;;;;;;1.70;1.02;;;15.80;82.90;;;;;;4994786;28;20049;-75
2021/05/10 10:18:43;;;;;;;5.00;1.25;;;15.50;84.40;;;;;;5026965;28;20041;-75
2021/05/10 10:21:11;;;;;;;3.05;1.30;;;15.30;85.70;;;;;;5011520;28;20057;-73
2021/05/10 10:23:38;;;;;;;2.17;1.20;;;15.20;86.40;;;;;;5011997;28;20044;-74
2021/05/10 10:26:14;;;;;;;1.80;1.13;;;15.10;87.50;;;;;;5007617;28;20058;-74
2021/05/10 10:28:41;;;;;;;2.35;1.10;;;15.20;88.00;;;;;;4944901;28;20119;-74
2021/05/10 10:31:13;;;;;;;4.50;1.33;;;15.30;88.60;;;;;;5006939;28;20049;-74
2021/05/10 10:34:00;;;;;;;2.78;1.20;;;15.30;89.20;;;;;;4992796;28;20382;-74
2021/05/10 10:36:39;;;;;;;4.13;1.50;;;15.40;89.50;;;;;;4991498;28;20065;-74
2021/05/10 10:39:24;;;;;;;2.63;1.42;;;15.40;90.00;;;;;;4974630;28;20046;-74
2021/05/10 10:41:57;;;;;;;5.20;1.63;;;15.60;90.10;;;;;;4995696;28;20450;-75
2021/05/10 10:44:29;;;;;;;3.58;1.30;;;15.80;89.10;;;;;;4981910;28;20150;-74
2021/05/10 10:46:55;;;;;;;1.63;1.23;;;15.90;88.60;;;;;;5004265;28;20047;-74
2021/05/10 10:49:28;;;;;;;2.28;1.27;;;16.00;88.00;;;;;;5001818;28;20092;-73
2021/05/10 10:51:55;;;;;;;2.35;1.23;;;16.10;88.20;;;;;;5003913;28;20135;-74
2021/05/10 10:54:23;;;;;;;2.13;1.52;;;16.10;87.10;;;;;;4986577;28;20069;-75
2021/05/10 10:56:54;;;;;;;2.45;1.30;;;16.10;87.40;;;;;;4999003;28;20444;-76
2021/05/10 10:59:26;;;;;;;3.00;1.55;;;16.10;87.50;;;;;;5002486;28;20043;-77
2021/05/10 11:01:53;;;;;;;2.63;1.80;;;16.10;87.30;;;;;;4986492;28;20034;-76
2021/05/10 11:04:29;;;;;;;2.22;1.60;;;15.90;87.70;;;;;;4990180;28;20311;-77
2021/05/10 11:06:56;;;;;;;2.78;1.70;;;16.00;88.30;;;;;;4979379;28;20069;-77
2021/05/10 11:09:54;;;;;;;3.65;1.90;;;16.10;88.60;;;;;;5016555;28;20092;-77
2021/05/10 11:12:52;;;;;;;2.50;1.80;;;16.20;89.20;;;;;;4947244;28;20065;-77
2021/05/10 11:15:41;;;;;;;3.05;2.25;;;16.30;89.10;;;;;;5002914;28;20045;-77
2021/05/10 11:18:08;;;;;;;4.40;2.45;;;16.50;88.60;;;;;;4986911;28;21180;-76
2021/05/10 11:20:44;;;;;;;3.30;2.35;;;16.40;87.60;;;;;;4990667;28;20038;-76
2021/05/10 11:23:25;;;;;;;4.97;2.45;;;16.40;87.60;;;;;;4991646;28;20070;-76
2021/05/10 11:25:57;;;;;;;4.28;2.55;;;16.50;87.60;;;;;;5017382;28;20049;-75
2021/05/10 11:28:32;;;;;;;4.53;2.80;;;16.50;87.30;;;;;;5001335;28;20042;-73
2021/05/10 11:31:06;;;;;;;3.05;2.53;;;16.50;87.30;;;;;;4990184;28;20034;-77
2021/05/10 11:33:51;;;;;;;5.72;2.55;;;16.60;87.40;;;;;;5010888;28;20369;-74
2021/05/10 11:36:35;;;;;;;4.18;2.95;;;16.60;87.30;;;;;;4979305;28;20046;-75
2021/05/10 11:39:07;;;;;;;4.28;2.92;;;16.60;86.90;;;;;;5021561;28;20096;-74
2021/05/10 11:41:43;;;;;;;4.75;2.88;;;16.70;87.80;;;;;;5008497;28;20285;-75
2021/05/10 11:44:25;;;;;;;4.53;2.90;;;16.70;86.80;;;;;;4987313;28;20046;-74
2021/05/10 11:46:55;;;;;;;6.15;2.78;;;16.70;86.80;;;;;;5009762;28;20038;-74
2021/05/10 11:49:42;;;;;;;6.28;3.03;;;16.60;86.00;;;;;;5004564;28;20543;-74
2021/05/10 11:52:14;;;;;;;4.65;2.97;;;16.60;86.60;;;;;;4986811;28;20058;-74
2021/05/10 11:54:47;;;;;;;5.03;3.00;;;16.60;86.40;;;;;;4996305;28;20836;-74
2021/05/10 11:57:16;;;;;;;4.65;3.20;;;16.60;85.20;;;;;;5012442;28;20123;-74
2021/05/10 12:02:22;;;;;;;6.32;3.10;;;16.50;85.20;;;;;;5009983;28;20045;-74
2021/05/10 12:04:54;;;;;;;4.20;2.90;;;16.40;85.30;;;;;;4991766;28;20080;-74
2021/05/10 12:07:22;;;;;;;6.43;3.35;;;16.30;85.70;;;;;;4986700;28;20049;-75
2021/05/10 12:10:01;;;;;;;4.22;2.97;;;16.30;86.30;;;;;;4993450;28;20567;-74
2021/05/10 12:12:30;;;;;;;4.20;2.50;;;16.30;85.80;;;;;;5016243;28;20041;-74
2021/05/10 12:15:10;;;;;;;4.38;2.25;;;16.30;84.30;;;;;;5003089;28;20433;-74
2021/05/10 12:17:37;;;;;;;5.43;2.50;;;16.30;84.30;;;;;;5009876;28;20073;-74
2021/05/10 12:20:08;;;;;;;5.65;2.97;;;16.20;84.40;;;;;;4993630;28;20038;-74
2021/05/10 12:22:44;;;;;;;4.80;2.80;;;16.20;83.60;;;;;;5002620;28;20084;-74
2021/05/10 12:25:26;;;;;;;6.25;2.88;;;16.10;83.70;;;;;;4989305;28;20040;-74
2021/05/10 12:28:07;;;;;;;5.88;2.60;;;16.10;83.70;;;;;;5024645;28;20041;-74
2021/05/10 12:30:37;;;;;;;6.35;3.30;;;16.00;82.90;;;;;;4990531;28;20074;-74
2021/05/10 12:33:08;;;;;;;6.93;4.10;;;15.90;83.70;;;;;;5014234;28;20053;-74
2021/05/10 12:35:53;;;;;;;8.80;4.97;;;15.70;85.50;;;;;;4990001;28;20042;-74
2021/05/10 12:38:39;;;;;;;7.45;5.75;;;15.50;87.00;;;;;;5001566;28;20038;-74
2021/05/10 12:41:29;;;;;;;6.60;5.60;;;15.40;89.00;;;;;;5000267;28;20517;-75
2021/05/10 12:43:56;;;;;;;8.05;5.80;;;15.30;89.60;;;;;;4998961;28;20401;-75
2021/05/10 12:46:28;;;;;;;7.13;5.82;;;15.30;90.10;;;;;;5002413;28;20049;-74
2021/05/10 12:48:54;;;;;;;6.50;5.28;;;15.40;90.20;;;;;;4995123;28;20038;-74
2021/05/10 12:51:26;;;;;;;8.55;5.28;;;15.40;90.20;;;;;;5006728;28;20052;-74
2021/05/10 12:54:04;;;;;;;7.82;4.47;;;15.40;89.80;;;;;;4987884;28;20042;-74
2021/05/10 12:56:44;;;;;;;6.82;4.63;;;15.40;88.60;;;;;;4985772;28;20519;-74
2021/05/10 12:59:10;;;;;;;5.35;3.47;;;15.40;86.40;;;;;;5010971;28;20500;-74
2021/05/10 13:01:36;;;;;;;6.45;2.88;;;15.50;85.80;;;;;;4987405;28;20080;-74
2021/05/10 13:04:03;;;;;;;5.85;2.40;;;15.50;84.00;;;;;;5004070;28;20038;-74
2021/05/10 13:06:31;;;;;;;4.15;1.95;;;15.50;83.50;;;;;;4990704;28;20072;-74